Time;durP1;ratioP1;P1;durP2;ratioP2;P2;SDS_P1;SDS_P2;PMS_P1;PMS_P2;Temp;Humidity;BMP_temperature;BMP_pressure;BME280_temperature;BME280_humidity;BME280_pressure;Samples;Min_cycle;Max_cycle;Signal;HPM_P1;HPM_P2
2024/02/25 00:00:19;;;;;;;;;;;2.40;99.90;;;;;;5041839;28;20273;-64
2024/02/25 00:05:41;;;;;;;3.63;1.13;;;2.40;99.90;;;;;;5502241;22;20049;-69
2024/02/25 00:08:27;;;;;;;4.35;1.10;;;2.40;99.90;;;;;;5026211;28;20099;-69
2024/02/25 00:11:13;;;;;;;4.70;1.00;;;2.40;99.90;;;;;;5037279;28;20037;-69
2024/02/25 00:13:59;;;;;;;1.75;0.93;;;2.40;99.90;;;;;;5021673;28;20037;-70
2024/02/25 00:16:45;;;;;;;2.42;1.33;;;2.40;99.90;;;;;;5015457;28;20426;-69
2024/02/25 00:19:31;;;;;;;1.57;0.87;;;2.40;99.90;;;;;;5005085;28;20263;-69
2024/02/25 00:22:16;;;;;;;2.20;0.70;;;2.40;99.90;;;;;;5000965;28;20390;-69
2024/02/25 00:25:02;;;;;;;5.00;1.03;;;2.30;99.90;;;;;;4997719;28;20062;-69
2024/02/25 00:27:48;;;;;;;3.25;0.98;;;2.30;99.90;;;;;;5001047;28;20040;-69
2024/02/25 00:30:34;;;;;;;3.17;1.50;;;2.30;99.90;;;;;;4992743;28;20048;-69
2024/02/25 00:33:20;;;;;;;2.10;1.20;;;2.20;99.90;;;;;;4984035;28;20038;-69
2024/02/25 00:36:08;;;;;;;1.83;1.27;;;2.30;99.90;;;;;;4992138;28;20030;-69
2024/02/25 00:38:54;;;;;;;2.75;1.33;;;2.20;99.90;;;;;;4993538;28;20026;-69
2024/02/25 00:41:40;;;;;;;2.83;1.83;;;2.20;99.90;;;;;;4992237;28;20034;-69
2024/02/25 00:44:26;;;;;;;5.27;1.90;;;2.20;99.90;;;;;;4970409;28;20369;-69
2024/02/25 00:47:13;;;;;;;3.58;1.60;;;2.10;99.90;;;;;;4991319;28;20069;-69
2024/02/25 00:49:58;;;;;;;4.85;1.90;;;2.10;99.90;;;;;;4993541;28;20034;-69
2024/02/25 00:52:44;;;;;;;3.35;1.80;;;2.00;99.90;;;;;;4998860;28;20030;-70
2024/02/25 00:55:30;;;;;;;4.93;2.13;;;2.00;99.90;;;;;;4993327;28;20034;-69
2024/02/25 00:58:16;;;;;;;4.22;2.22;;;2.00;99.90;;;;;;4992514;28;20030;-67
2024/02/25 01:01:02;;;;;;;5.07;2.23;;;2.10;99.90;;;;;;4999059;28;20088;-67
2024/02/25 01:03:48;;;;;;;2.07;1.70;;;2.00;99.90;;;;;;5015157;28;20320;-67
2024/02/25 01:06:34;;;;;;;3.00;2.50;;;2.10;99.90;;;;;;5014401;28;20504;-67
2024/02/25 01:09:20;;;;;;;3.23;2.47;;;2.10;99.90;;;;;;5020680;28;20643;-67
2024/02/25 01:12:06;;;;;;;11.03;3.33;;;2.10;99.90;;;;;;5028624;22;20049;-63
2024/02/25 01:14:53;;;;;;;6.50;3.17;;;2.10;99.90;;;;;;5053810;28;20516;-63
2024/02/25 01:17:39;;;;;;;6.47;3.40;;;2.20;99.90;;;;;;5042736;28;20296;-64
2024/02/25 01:20:25;;;;;;;9.20;3.57;;;2.30;99.90;;;;;;5039258;28;20040;-64
2024/02/25 01:23:11;;;;;;;5.73;3.73;;;2.30;99.90;;;;;;5040344;28;20108;-64
2024/02/25 01:25:56;;;;;;;5.13;4.07;;;2.40;99.90;;;;;;5038692;28;20409;-64
2024/02/25 01:28:42;;;;;;;6.95;4.47;;;2.40;99.90;;;;;;5035668;28;20041;-64
2024/02/25 01:31:28;;;;;;;7.07;3.70;;;2.40;99.90;;;;;;5040217;28;20116;-64
2024/02/25 01:34:14;;;;;;;9.00;3.93;;;2.40;99.90;;;;;;5042864;28;20112;-64
2024/02/25 01:37:00;;;;;;;5.20;3.67;;;2.40;99.90;;;;;;5041305;28;20033;-64
2024/02/25 01:39:46;;;;;;;6.47;3.67;;;2.40;99.90;;;;;;5027754;28;20342;-64
2024/02/25 01:42:32;;;;;;;5.80;3.37;;;2.40;99.90;;;;;;5040180;28;20402;-64
2024/02/25 01:45:19;;;;;;;7.30;3.45;;;2.40;99.90;;;;;;5039716;28;20033;-64
2024/02/25 01:48:05;;;;;;;;;;;2.40;99.90;;;;;;5036594;28;20078;-64
2024/02/25 01:50:51;;;;;;;5.18;3.72;;;2.30;99.90;;;;;;5039299;28;20030;-64
2024/02/25 01:53:37;;;;;;;5.43;2.90;;;2.30;99.90;;;;;;5036004;28;20029;-64
2024/02/25 01:56:23;;;;;;;4.28;3.40;;;2.30;99.90;;;;;;5034369;28;20041;-64
2024/02/25 01:59:09;;;;;;;4.68;3.58;;;2.30;99.90;;;;;;5041425;28;20033;-64
2024/02/25 02:01:55;;;;;;;6.93;3.83;;;2.20;99.90;;;;;;5040669;28;20745;-64
2024/02/25 02:04:42;;;;;;;6.37;3.30;;;2.30;99.90;;;;;;5038286;28;20374;-64
2024/02/25 02:07:28;;;;;;;6.32;2.97;;;2.30;99.90;;;;;;5039387;28;20068;-64
2024/02/25 02:10:15;;;;;;;4.43;2.88;;;2.30;99.90;;;;;;5037323;28;20069;-64
2024/02/25 02:13:01;;;;;;;5.43;2.42;;;2.30;99.90;;;;;;5040590;28;20033;-64
2024/02/25 02:15:47;;;;;;;3.15;2.38;;;2.20;99.90;;;;;;5036527;28;20517;-64
2024/02/25 02:18:33;;;;;;;6.97;3.40;;;2.30;99.90;;;;;;5041305;28;20041;-64
2024/02/25 02:21:19;;;;;;;4.30;2.63;;;2.30;99.90;;;;;;5037389;28;20064;-64
2024/02/25 02:24:06;;;;;;;;;;;2.30;99.90;;;;;;5042112;28;20051;-64
2024/02/25 02:26:52;;;;;;;5.30;2.40;;;2.30;99.90;;;;;;5038119;28;20259;-64
2024/02/25 02:29:38;;;;;;;6.80;2.70;;;2.30;99.90;;;;;;5032160;28;20025;-64
2024/02/25 02:32:24;;;;;;;4.10;2.33;;;2.30;99.90;;;;;;5040529;28;20056;-64
2024/02/25 02:35:09;;;;;;;5.97;2.30;;;2.30;99.90;;;;;;5043519;28;20497;-64
2024/02/25 02:37:56;;;;;;;2.42;1.63;;;2.30;99.90;;;;;;5041414;28;20109;-63
2024/02/25 02:40:42;;;;;;;7.28;2.33;;;2.30;99.90;;;;;;5043460;28;20029;-64
2024/02/25 02:43:27;;;;;;;4.27;2.50;;;2.40;99.90;;;;;;5041581;28;20052;-63
2024/02/25 02:46:13;;;;;;;2.93;2.00;;;2.40;99.90;;;;;;5040294;28;20940;-63
2024/02/25 02:48:59;;;;;;;3.60;2.03;;;2.50;99.90;;;;;;5043521;28;20058;-63
2024/02/25 02:51:45;;;;;;;2.97;2.10;;;2.40;99.90;;;;;;5042661;28;20075;-63
2024/02/25 02:54:31;;;;;;;3.00;2.33;;;2.40;99.90;;;;;;5042139;28;20043;-64
2024/02/25 02:57:17;;;;;;;4.43;2.03;;;2.40;99.90;;;;;;5040859;28;20036;-64
2024/02/25 03:00:04;;;;;;;4.40;1.90;;;2.50;99.90;;;;;;5038365;28;20056;-64
2024/02/25 03:02:50;;;;;;;3.80;1.90;;;2.50;99.90;;;;;;5027527;28;20371;-64
2024/02/25 03:05:36;;;;;;;5.33;1.90;;;2.60;99.90;;;;;;5042838;28;20460;-64
2024/02/25 03:08:22;;;;;;;6.37;2.67;;;2.70;99.90;;;;;;5043013;28;20041;-64
2024/02/25 03:11:08;;;;;;;3.27;1.80;;;2.80;99.90;;;;;;5043812;28;20025;-64
2024/02/25 03:13:53;;;;;;;5.78;2.20;;;2.70;99.90;;;;;;5039829;28;20497;-64
2024/02/25 03:16:40;;;;;;;2.38;1.70;;;2.70;99.90;;;;;;5040539;28;20140;-64
2024/02/25 03:19:26;;;;;;;4.60;1.90;;;2.70;99.90;;;;;;5038895;28;20041;-64
2024/02/25 03:22:11;;;;;;;3.15;1.85;;;2.70;99.90;;;;;;5037086;28;20480;-64
2024/02/25 03:24:57;;;;;;;5.53;2.20;;;2.70;99.90;;;;;;5041218;28;20100;-64
2024/02/25 03:27:43;;;;;;;2.83;2.00;;;2.70;99.90;;;;;;5039585;28;20770;-64
2024/02/25 03:30:29;;;;;;;4.77;2.27;;;2.70;99.90;;;;;;5041116;28;20037;-64
2024/02/25 03:33:15;;;;;;;3.60;2.17;;;2.60;99.90;;;;;;5041159;28;20058;-64
2024/02/25 03:36:01;;;;;;;3.78;2.20;;;2.60;99.90;;;;;;5044717;28;20815;-64
2024/02/25 03:38:47;;;;;;;4.10;2.50;;;2.60;99.90;;;;;;5039272;28;20037;-63
2024/02/25 03:41:33;;;;;;;4.10;2.20;;;2.60;99.90;;;;;;5043060;28;20047;-64
2024/02/25 03:44:19;;;;;;;3.50;2.10;;;2.60;99.90;;;;;;5039612;28;20737;-64
2024/02/25 03:47:05;;;;;;;3.78;2.05;;;2.60;99.90;;;;;;5040698;28;20033;-63
2024/02/25 03:49:50;;;;;;;5.27;2.30;;;2.60;99.90;;;;;;5042856;28;20032;-64
2024/02/25 03:52:38;;;;;;;4.05;2.08;;;2.60;99.90;;;;;;5041120;28;20553;-64
2024/02/25 03:55:25;;;;;;;9.48;2.50;;;2.60;99.90;;;;;;5045537;28;20083;-63
2024/02/25 03:58:11;;;;;;;2.88;2.08;;;2.60;99.90;;;;;;5047009;28;20032;-63
2024/02/25 04:00:57;;;;;;;3.22;2.13;;;2.60;99.90;;;;;;5043383;28;20120;-63
2024/02/25 04:03:43;;;;;;;3.53;2.37;;;2.60;99.90;;;;;;5043149;28;20036;-63
2024/02/25 04:06:29;;;;;;;3.90;2.27;;;2.50;99.90;;;;;;5051608;28;20029;-64
2024/02/25 04:09:15;;;;;;;4.55;2.22;;;2.50;99.90;;;;;;5043613;28;20028;-64
2024/02/25 04:12:00;;;;;;;4.32;2.10;;;2.50;99.90;;;;;;5047754;28;20230;-64
2024/02/25 04:14:46;;;;;;;3.77;2.20;;;2.50;99.90;;;;;;5044855;28;20610;-64
2024/02/25 04:17:33;;;;;;;3.05;2.30;;;2.50;99.90;;;;;;5044228;28;20094;-64
2024/02/25 04:20:22;;;;;;;3.38;2.50;;;2.50;99.90;;;;;;5046570;28;20033;-63
2024/02/25 04:23:08;;;;;;;6.03;2.67;;;2.50;99.90;;;;;;5042226;28;20037;-63
2024/02/25 04:25:53;;;;;;;5.53;2.50;;;2.50;99.90;;;;;;5046557;28;20101;-63
2024/02/25 04:28:39;;;;;;;5.80;2.43;;;2.60;99.90;;;;;;5041715;28;20032;-66
2024/02/25 04:31:25;;;;;;;4.73;2.43;;;2.60;99.90;;;;;;5042756;28;20115;-63
2024/02/25 04:34:12;;;;;;;4.07;2.80;;;2.60;99.90;;;;;;5037075;28;20064;-63
2024/02/25 04:36:58;;;;;;;;;;;2.60;99.90;;;;;;5043070;28;20409;-63
2024/02/25 04:39:44;;;;;;;4.93;2.38;;;2.50;99.90;;;;;;5044516;28;20405;-63
2024/02/25 04:42:30;;;;;;;5.03;2.50;;;2.50;99.90;;;;;;5044108;28;20037;-64
2024/02/25 04:45:15;;;;;;;3.65;2.17;;;2.60;99.90;;;;;;5044802;28;20462;-64
2024/02/25 04:48:02;;;;;;;2.63;2.28;;;2.60;99.90;;;;;;5043327;28;20033;-64
2024/02/25 04:50:48;;;;;;;3.15;2.20;;;2.60;99.90;;;;;;5042887;28;20029;-64
2024/02/25 04:53:33;;;;;;;2.30;1.93;;;2.60;99.90;;;;;;5043654;28;20048;-64
2024/02/25 04:56:19;;;;;;;3.30;2.17;;;2.60;99.90;;;;;;5041858;28;20041;-64
2024/02/25 04:59:05;;;;;;;3.20;2.20;;;2.60;99.90;;;;;;5042406;28;20029;-63
2024/02/25 05:01:53;;;;;;;3.95;1.80;;;2.60;99.90;;;;;;5045470;28;20427;-64
2024/02/25 05:04:40;;;;;;;3.05;1.85;;;2.50;99.90;;;;;;5042098;28;20037;-64
2024/02/25 05:07:25;;;;;;;3.17;2.35;;;2.50;99.90;;;;;;5039212;28;20048;-64
2024/02/25 05:10:11;;;;;;;3.33;2.30;;;2.50;99.90;;;;;;5038475;28;20583;-64
2024/02/25 05:12:57;;;;;;;1.90;1.60;;;2.50;99.90;;;;;;5030248;28;20104;-64
2024/02/25 05:15:43;;;;;;;4.10;2.30;;;2.50;99.90;;;;;;5039647;28;20104;-63
2024/02/25 05:18:29;;;;;;;3.08;1.90;;;2.50;99.90;;;;;;5042496;28;20044;-64
2024/02/25 05:21:15;;;;;;;2.45;1.88;;;2.50;99.90;;;;;;5043553;28;20033;-64
2024/02/25 05:24:01;;;;;;;2.43;1.97;;;2.50;99.90;;;;;;5043918;28;20098;-64
2024/02/25 05:26:47;;;;;;;4.72;2.13;;;2.50;99.90;;;;;;5040137;28;20740;-64
2024/02/25 05:29:33;;;;;;;3.17;1.52;;;2.50;99.90;;;;;;5042128;28;20029;-64
2024/02/25 05:32:19;;;;;;;2.53;1.80;;;2.50;99.90;;;;;;5038578;28;20036;-64
2024/02/25 05:35:06;;;;;;;2.28;1.75;;;2.50;99.90;;;;;;5039373;28;20751;-64
2024/02/25 05:37:52;;;;;;;2.58;1.70;;;2.50;99.90;;;;;;5040282;28;20037;-64
2024/02/25 05:40:40;;;;;;;2.77;1.87;;;2.50;99.90;;;;;;5034498;28;20036;-64
2024/02/25 05:43:26;;;;;;;3.05;1.80;;;2.50;99.90;;;;;;5040188;28;20094;-64
2024/02/25 05:46:13;;;;;;;2.38;1.50;;;2.50;99.90;;;;;;5038077;28;20208;-64
2024/02/25 05:48:58;;;;;;;3.33;1.70;;;2.50;99.90;;;;;;5040048;28;20036;-64
2024/02/25 05:51:44;;;;;;;1.93;1.37;;;2.50;99.90;;;;;;5039708;28;20033;-64
2024/02/25 05:54:30;;;;;;;1.57;1.33;;;2.50;99.90;;;;;;5037004;28;20606;-64
2024/02/25 05:57:16;;;;;;;3.40;1.70;;;2.40;99.90;;;;;;5035866;28;20033;-64
2024/02/25 06:00:03;;;;;;;1.93;1.40;;;2.40;99.90;;;;;;5036590;28;20890;-64
2024/02/25 06:02:49;;;;;;;2.05;1.25;;;2.40;99.90;;;;;;5038107;28;20047;-64
2024/02/25 06:05:34;;;;;;;1.47;1.23;;;2.40;99.90;;;;;;5037668;28;20061;-64
2024/02/25 06:08:20;;;;;;;3.83;1.33;;;2.40;99.90;;;;;;5040341;28;20029;-64
2024/02/25 06:11:06;;;;;;;1.98;1.30;;;2.40;99.90;;;;;;5037363;28;20525;-64
2024/02/25 06:13:52;;;;;;;1.53;1.10;;;2.40;99.90;;;;;;5035435;28;20037;-64
2024/02/25 06:16:38;;;;;;;1.83;1.20;;;2.40;99.90;;;;;;5031225;28;20868;-64
2024/02/25 06:19:24;;;;;;;1.83;1.37;;;2.40;99.90;;;;;;5036879;28;20512;-64
2024/02/25 06:22:10;;;;;;;1.67;1.13;;;2.40;99.90;;;;;;5040916;28;20401;-65
2024/02/25 06:24:56;;;;;;;1.35;1.25;;;2.40;99.90;;;;;;5038727;28;20041;-64
2024/02/25 06:27:43;;;;;;;1.88;1.25;;;2.40;99.90;;;;;;5042882;28;20033;-65
2024/02/25 06:30:29;;;;;;;2.08;1.20;;;2.40;99.90;;;;;;5039267;28;20082;-65
2024/02/25 06:33:15;;;;;;;2.08;1.08;;;2.40;99.90;;;;;;5040524;28;20086;-64
2024/02/25 06:36:01;;;;;;;2.83;1.40;;;2.40;99.90;;;;;;5042470;28;20064;-64
2024/02/25 06:38:47;;;;;;;1.42;1.20;;;2.50;99.90;;;;;;5035498;28;20116;-64
2024/02/25 06:41:33;;;;;;;1.67;1.20;;;2.50;99.90;;;;;;5023630;28;20650;-64
2024/02/25 06:44:19;;;;;;;1.65;1.20;;;2.60;99.90;;;;;;5040865;28;20414;-64
2024/02/25 06:47:05;;;;;;;1.87;1.10;;;2.50;99.90;;;;;;5035944;28;20043;-65
2024/02/25 06:49:54;;;;;;;2.90;1.33;;;2.60;99.90;;;;;;5040598;28;20310;-65
2024/02/25 06:52:39;;;;;;;1.17;0.90;;;2.60;99.90;;;;;;5037867;28;20415;-64
2024/02/25 06:55:25;;;;;;;1.58;1.33;;;2.60;99.90;;;;;;5035466;28;20531;-65
2024/02/25 06:58:11;;;;;;;2.60;1.77;;;2.60;99.90;;;;;;5037293;28;20099;-65
2024/02/25 07:00:57;;;;;;;2.25;1.50;;;2.70;99.90;;;;;;5038656;28;20080;-65
2024/02/25 07:03:44;;;;;;;1.37;1.13;;;2.70;99.90;;;;;;5040854;28;20032;-65
2024/02/25 07:06:30;;;;;;;1.23;0.93;;;2.70;99.90;;;;;;5039703;28;20037;-65
2024/02/25 07:09:15;;;;;;;2.15;1.40;;;2.70;99.90;;;;;;5037959;28;20296;-64
2024/02/25 07:12:01;;;;;;;1.50;1.10;;;2.80;99.90;;;;;;5041981;28;20099;-64
2024/02/25 07:14:47;;;;;;;1.30;0.87;;;2.70;99.90;;;;;;5039519;28;20037;-65
2024/02/25 07:17:33;;;;;;;1.90;1.00;;;2.80;99.90;;;;;;5040378;28;20033;-64
2024/02/25 07:20:21;;;;;;;2.05;1.50;;;2.80;99.90;;;;;;5030234;28;20496;-64
2024/02/25 07:23:07;;;;;;;1.23;0.77;;;2.80;99.90;;;;;;5039218;28;20037;-64
2024/02/25 07:25:53;;;;;;;0.93;0.82;;;2.70;99.90;;;;;;5034579;28;20056;-65
2024/02/25 07:28:40;;;;;;;1.40;0.70;;;2.80;99.90;;;;;;5042365;28;20037;-64
2024/02/25 07:31:26;;;;;;;0.77;0.77;;;2.80;99.90;;;;;;5040151;28;20045;-65
2024/02/25 07:34:12;;;;;;;2.50;0.80;;;2.80;99.90;;;;;;5034636;28;20119;-65
2024/02/25 07:36:58;;;;;;;0.98;0.60;;;2.80;99.90;;;;;;5043998;28;20025;-65
2024/02/25 07:39:41;;;;;;;0.77;0.60;;;2.90;99.90;;;;;;5016474;28;20180;-66
2024/02/25 07:42:27;;;;;;;0.85;0.60;;;2.90;99.90;;;;;;5030650;28;20040;-66
2024/02/25 07:45:13;;;;;;;4.63;0.80;;;3.00;99.90;;;;;;5025142;28;20053;-66
2024/02/25 07:47:59;;;;;;;1.30;0.80;;;3.00;99.90;;;;;;5019236;28;20029;-66
2024/02/25 07:50:45;;;;;;;0.80;0.60;;;3.10;99.90;;;;;;5020631;28;20037;-66
2024/02/25 07:53:31;;;;;;;1.33;0.80;;;3.10;99.90;;;;;;5017570;28;20038;-66
2024/02/25 07:56:23;;;;;;;1.47;0.77;;;3.10;99.90;;;;;;5021315;28;20087;-66
2024/02/25 07:59:09;;;;;;;1.00;0.43;;;3.10;99.90;;;;;;5016828;28;20030;-66
2024/02/25 08:01:56;;;;;;;1.55;0.60;;;3.10;99.90;;;;;;5023162;28;20124;-68
2024/02/25 08:04:42;;;;;;;2.55;0.60;;;3.20;99.90;;;;;;5019744;28;20102;-66
2024/02/25 08:07:28;;;;;;;0.70;0.70;;;3.40;99.90;;;;;;5021129;28;20486;-66
2024/02/25 08:10:15;;;;;;;1.25;0.90;;;3.50;99.90;;;;;;5018692;28;20264;-66
2024/02/25 08:13:01;;;;;;;1.17;0.70;;;3.50;99.90;;;;;;5017657;28;20033;-65
2024/02/25 08:15:47;;;;;;;1.17;0.60;;;3.50;99.90;;;;;;5018748;28;20540;-66
2024/02/25 08:18:34;;;;;;;0.63;0.47;;;3.60;99.90;;;;;;5019769;28;20792;-65
2024/02/25 08:21:20;;;;;;;0.60;0.60;;;3.60;99.90;;;;;;5021081;28;20038;-66
2024/02/25 08:24:07;;;;;;;1.80;0.60;;;3.70;99.90;;;;;;5022293;28;20027;-66
2024/02/25 08:26:52;;;;;;;0.75;0.63;;;3.60;99.90;;;;;;5022635;28;20283;-65
2024/02/25 08:29:42;;;;;;;0.95;0.68;;;3.60;99.90;;;;;;5017886;28;20034;-66
2024/02/25 08:32:28;;;;;;;0.95;0.73;;;3.70;99.90;;;;;;5015573;28;20034;-67
2024/02/25 08:35:14;;;;;;;0.97;0.63;;;3.70;99.90;;;;;;5012704;28;20033;-66
2024/02/25 08:38:00;;;;;;;1.63;0.53;;;3.90;99.90;;;;;;5016431;28;20037;-66
2024/02/25 08:40:46;;;;;;;0.73;0.60;;;4.10;99.90;;;;;;5022394;28;20311;-66
2024/02/25 08:43:32;;;;;;;1.00;0.60;;;4.20;99.90;;;;;;5015720;28;20041;-66
2024/02/25 08:46:18;;;;;;;0.93;0.60;;;4.30;99.90;;;;;;5015065;28;20042;-66
2024/02/25 08:49:03;;;;;;;1.00;0.80;;;4.30;99.90;;;;;;5018806;28;20065;-66
2024/02/25 08:51:49;;;;;;;1.27;0.80;;;4.40;99.90;;;;;;5018050;28;20032;-66
2024/02/25 08:54:38;;;;;;;0.68;0.50;;;4.40;99.90;;;;;;5017849;28;20471;-66
2024/02/25 08:57:30;;;;;;;3.50;0.45;;;4.40;99.90;;;;;;5013355;28;20044;-67
2024/02/25 09:00:16;;;;;;;1.70;0.50;;;4.40;99.90;;;;;;5014272;28;20425;-66
2024/02/25 09:03:02;;;;;;;0.70;0.57;;;4.30;99.90;;;;;;5037944;28;20033;-66
2024/02/25 09:05:48;;;;;;;0.93;0.70;;;4.60;99.90;;;;;;5014834;28;20039;-66
2024/02/25 09:08:34;;;;;;;0.73;0.52;;;4.70;99.90;;;;;;5014241;28;21069;-66
2024/02/25 09:11:20;;;;;;;0.98;0.55;;;4.80;99.90;;;;;;5012692;28;20041;-66
2024/02/25 09:14:07;;;;;;;0.70;0.60;;;4.80;99.90;;;;;;5013942;28;20073;-67
2024/02/25 09:16:53;;;;;;;0.50;0.40;;;5.10;99.90;;;;;;5014395;28;20044;-67
2024/02/25 09:19:39;;;;;;;0.77;0.60;;;5.20;99.90;;;;;;5015874;28;20045;-67
2024/02/25 09:22:25;;;;;;;0.68;0.68;;;5.10;99.90;;;;;;5014965;28;20045;-66
2024/02/25 09:25:11;;;;;;;1.67;0.70;;;5.20;99.90;;;;;;5018677;28;20045;-66
2024/02/25 09:27:57;;;;;;;1.05;0.60;;;5.40;99.90;;;;;;5016704;28;20034;-66
2024/02/25 09:30:43;;;;;;;1.50;0.57;;;5.60;99.90;;;;;;5016555;28;20169;-67
2024/02/25 09:33:34;;;;;;;0.77;0.73;;;5.70;99.90;;;;;;5014241;28;20096;-67
2024/02/25 09:36:23;;;;;;;0.95;0.65;;;5.60;99.90;;;;;;5014824;28;20034;-66
2024/02/25 09:39:09;;;;;;;1.20;0.85;;;5.60;99.90;;;;;;5014303;28;20045;-66
2024/02/25 09:41:55;;;;;;;1.20;0.70;;;5.50;99.90;;;;;;5018808;28;20037;-66
2024/02/25 09:44:41;;;;;;;1.20;0.83;;;5.30;99.90;;;;;;5021547;28;20269;-66
2024/02/25 09:47:28;;;;;;;1.35;0.80;;;5.40;99.90;;;;;;5016171;28;20482;-65
2024/02/25 09:50:17;;;;;;;1.73;0.60;;;5.40;99.90;;;;;;5010985;28;20446;-64
2024/02/25 09:53:04;;;;;;;1.30;0.90;;;5.30;99.90;;;;;;5013603;28;20076;-64
2024/02/25 09:55:50;;;;;;;0.80;0.70;;;5.30;99.90;;;;;;5012998;28;20038;-64
2024/02/25 09:58:36;;;;;;;2.40;0.70;;;5.40;99.90;;;;;;5018925;28;20041;-65
2024/02/25 10:01:22;;;;;;;1.10;0.70;;;5.40;99.90;;;;;;5012766;28;20111;-65
2024/02/25 10:04:08;;;;;;;1.73;0.80;;;5.50;99.90;;;;;;5015253;28;20029;-65
2024/02/25 10:06:56;;;;;;;0.95;0.85;;;5.50;99.90;;;;;;5013574;28;20045;-65
2024/02/25 10:09:43;;;;;;;1.15;0.60;;;5.50;99.90;;;;;;5014126;28;20037;-65
2024/02/25 10:12:29;;;;;;;;;;;5.60;99.90;;;;;;5013987;28;20542;-65
2024/02/25 10:15:15;;;;;;;1.38;1.10;;;5.60;99.90;;;;;;5017119;28;19924;-65
2024/02/25 10:18:00;;;;;;;0.70;0.60;;;5.50;99.90;;;;;;5014306;28;20037;-65
2024/02/25 10:20:47;;;;;;;0.98;0.80;;;5.40;99.90;;;;;;5020236;28;20511;-65
2024/02/25 10:23:36;;;;;;;0.98;0.70;;;5.40;99.90;;;;;;5013958;28;20050;-66
2024/02/25 10:26:24;;;;;;;0.95;0.70;;;5.50;99.90;;;;;;5017068;28;20033;-65
2024/02/25 10:29:10;;;;;;;1.30;0.90;;;5.50;99.90;;;;;;5014776;28;20581;-66
2024/02/25 10:32:00;;;;;;;1.70;0.80;;;5.40;99.90;;;;;;5018376;28;20060;-66
2024/02/25 10:34:45;;;;;;;1.95;0.80;;;5.20;99.90;;;;;;5029815;28;20084;-65
2024/02/25 10:37:32;;;;;;;2.13;0.98;;;5.20;99.90;;;;;;5013582;28;20045;-65
2024/02/25 10:40:18;;;;;;;1.38;0.90;;;5.20;99.90;;;;;;5011318;28;20068;-65
2024/02/25 10:43:04;;;;;;;1.08;0.60;;;5.30;99.90;;;;;;5019684;28;20040;-66
2024/02/25 10:45:51;;;;;;;1.38;0.82;;;5.50;99.90;;;;;;5014449;28;20065;-66
2024/02/25 10:48:38;;;;;;;1.92;0.77;;;5.70;99.90;;;;;;5012377;28;20034;-66
2024/02/25 10:51:25;;;;;;;1.92;0.82;;;5.90;99.90;;;;;;5012994;28;20065;-66
2024/02/25 10:54:15;;;;;;;6.55;2.00;;;6.00;99.90;;;;;;5014126;28;20056;-65
2024/02/25 10:57:02;;;;;;;1.75;0.93;;;5.90;99.90;;;;;;5018888;28;20542;-66
2024/02/25 10:59:48;;;;;;;1.60;1.05;;;5.90;99.90;;;;;;5013950;28;20257;-65
2024/02/25 11:02:35;;;;;;;1.45;0.85;;;5.80;99.90;;;;;;5011226;28;20053;-66
2024/02/25 11:05:21;;;;;;;1.27;0.98;;;5.90;99.90;;;;;;5014268;28;20282;-65
2024/02/25 11:08:10;;;;;;;1.40;0.90;;;5.80;99.90;;;;;;5016891;28;20029;-66
2024/02/25 11:11:00;;;;;;;1.90;0.77;;;5.80;99.90;;;;;;5019283;28;20040;-66
2024/02/25 11:13:46;;;;;;;1.08;0.90;;;5.60;99.90;;;;;;5016983;28;20125;-65
2024/02/25 11:16:37;;;;;;;1.60;0.80;;;5.60;99.90;;;;;;5017240;28;20037;-66
2024/02/25 11:19:23;;;;;;;1.20;0.82;;;5.70;99.90;;;;;;5015396;28;20072;-65
2024/02/25 11:22:10;;;;;;;1.42;0.90;;;5.70;99.90;;;;;;5016837;28;20033;-65
2024/02/25 11:24:55;;;;;;;;;;;5.80;99.90;;;;;;5047741;28;20052;-66
2024/02/25 11:27:57;;;;;;;2.33;0.80;;;6.00;99.90;;;;;;5019237;28;19924;-66
2024/02/25 11:30:48;;;;;;;1.67;0.82;;;6.20;99.90;;;;;;5018339;28;20044;-66
2024/02/25 11:33:44;;;;;;;1.10;0.80;;;6.10;99.90;;;;;;5017401;28;20038;-65
2024/02/25 11:36:30;;;;;;;1.45;0.80;;;6.10;99.90;;;;;;5015571;28;20030;-65
2024/02/25 11:39:19;;;;;;;1.38;0.80;;;6.10;99.90;;;;;;5016974;28;20046;-66
2024/02/25 11:42:06;;;;;;;0.68;0.68;;;6.10;99.90;;;;;;5016576;28;20385;-65
2024/02/25 11:44:52;;;;;;;0.93;0.60;;;6.50;99.90;;;;;;5015991;28;20029;-66
2024/02/25 11:47:38;;;;;;;1.02;0.68;;;6.60;99.90;;;;;;5014141;28;20120;-66
2024/02/25 11:50:25;;;;;;;1.00;0.80;;;6.60;99.90;;;;;;5012368;28;20080;-66
2024/02/25 11:53:10;;;;;;;;;;;6.60;99.90;;;;;;5014524;28;20037;-65
2024/02/25 11:55:56;;;;;;;1.10;0.73;;;6.80;99.90;;;;;;5012406;28;20595;-66
2024/02/25 11:58:42;;;;;;;1.48;0.68;;;6.70;99.90;;;;;;5010958;28;20029;-68
2024/02/25 12:01:28;;;;;;;2.20;0.60;;;6.70;99.90;;;;;;5012616;28;20041;-66
2024/02/25 12:04:15;;;;;;;1.08;0.60;;;6.70;99.90;;;;;;5019396;28;20552;-66
2024/02/25 12:07:04;;;;;;;;;;;6.70;99.90;;;;;;5016824;28;20141;-66
2024/02/25 12:09:50;;;;;;;1.77;0.55;;;6.60;99.90;;;;;;5020590;28;19909;-66
2024/02/25 12:12:36;;;;;;;1.83;0.77;;;6.50;99.90;;;;;;5017965;28;20042;-65
2024/02/25 12:15:29;;;;;;;2.85;0.82;;;6.60;99.90;;;;;;5017654;28;20303;-67
2024/02/25 12:18:14;;;;;;;1.58;0.85;;;6.50;99.90;;;;;;5011507;28;20133;-66
2024/02/25 12:21:02;;;;;;;1.50;0.70;;;6.50;99.90;;;;;;5024203;28;20030;-66
2024/02/25 12:23:48;;;;;;;1.10;0.73;;;6.40;99.90;;;;;;5021327;28;20046;-66
2024/02/25 12:26:55;;;;;;;0.85;0.80;;;6.50;99.90;;;;;;5021702;28;20039;-66
2024/02/25 12:29:41;;;;;;;1.02;0.63;;;6.50;99.90;;;;;;5020383;28;20034;-65
2024/02/25 12:32:27;;;;;;;1.02;0.70;;;6.50;99.90;;;;;;5019444;28;20034;-65
2024/02/25 12:35:13;;;;;;;1.10;0.70;;;6.60;99.90;;;;;;5021507;28;20060;-66
2024/02/25 12:37:59;;;;;;;0.60;0.52;;;6.50;99.90;;;;;;5022299;28;20292;-66
2024/02/25 12:40:45;;;;;;;0.75;0.50;;;6.80;99.90;;;;;;5021246;28;20034;-64
2024/02/25 12:43:31;;;;;;;1.52;0.85;;;7.10;99.90;;;;;;5018288;28;20134;-65
2024/02/25 12:46:19;;;;;;;2.35;1.08;;;7.10;99.90;;;;;;5021961;28;20684;-64
2024/02/25 12:49:14;;;;;;;0.73;0.47;;;7.40;99.90;;;;;;5020671;28;20406;-65
2024/02/25 12:52:00;;;;;;;1.30;0.70;;;7.30;99.90;;;;;;5015239;28;20091;-65
2024/02/25 12:54:46;;;;;;;1.40;0.80;;;7.10;99.90;;;;;;5014788;28;20033;-65
2024/02/25 12:57:32;;;;;;;3.50;0.55;;;7.10;99.90;;;;;;5020324;28;20407;-65
2024/02/25 13:00:18;;;;;;;1.98;0.60;;;7.20;99.90;;;;;;5022361;28;20041;-65
2024/02/25 13:03:04;;;;;;;1.17;0.53;;;7.20;99.90;;;;;;5020462;28;20049;-65
2024/02/25 13:05:50;;;;;;;1.13;0.70;;;7.00;99.90;;;;;;5022977;28;20555;-65
2024/02/25 13:08:37;;;;;;;1.27;0.80;;;6.80;99.90;;;;;;5020114;28;20034;-65
2024/02/25 13:11:22;;;;;;;1.23;0.52;;;6.70;99.90;;;;;;5024760;28;20040;-65
2024/02/25 13:14:08;;;;;;;0.93;0.60;;;6.40;99.90;;;;;;5022838;28;20112;-65
2024/02/25 13:16:54;;;;;;;1.25;0.70;;;6.00;99.90;;;;;;5021585;28;20033;-65
2024/02/25 13:19:40;;;;;;;3.17;0.63;;;5.80;99.90;;;;;;5019923;28;20083;-65
2024/02/25 13:22:27;;;;;;;2.85;0.55;;;5.70;99.90;;;;;;5021379;28;20622;-65
2024/02/25 13:25:15;;;;;;;3.83;0.93;;;5.60;99.90;;;;;;5021592;28;20029;-65
2024/02/25 13:28:02;;;;;;;0.82;0.30;;;5.40;99.90;;;;;;5019947;28;20041;-65
2024/02/25 13:30:48;;;;;;;0.25;0.20;;;5.30;99.90;;;;;;5019896;28;20031;-65
2024/02/25 13:33:34;;;;;;;0.20;0.20;;;5.50;99.90;;;;;;5018461;28;20040;-66
2024/02/25 13:36:24;;;;;;;0.85;0.30;;;5.60;99.90;;;;;;5024429;28;20075;-66
2024/02/25 13:39:11;;;;;;;0.40;0.32;;;5.60;99.90;;;;;;5019946;28;20052;-65
2024/02/25 13:41:57;;;;;;;2.33;0.43;;;5.50;99.90;;;;;;5019677;28;20453;-65
2024/02/25 13:44:43;;;;;;;1.05;0.40;;;5.60;99.90;;;;;;5020663;28;20749;-65
2024/02/25 13:47:29;;;;;;;0.50;0.30;;;5.80;99.90;;;;;;5020546;28;20036;-65
2024/02/25 13:50:15;;;;;;;0.43;0.30;;;5.70;99.90;;;;;;5025130;28;20049;-66
2024/02/25 13:53:01;;;;;;;1.77;0.40;;;5.70;99.90;;;;;;5019554;28;20025;-66
2024/02/25 13:55:47;;;;;;;0.20;0.20;;;5.70;99.90;;;;;;5023411;28;20036;-65
2024/02/25 13:58:33;;;;;;;0.73;0.40;;;5.70;99.90;;;;;;5020152;28;20033;-66
2024/02/25 14:01:19;;;;;;;1.45;0.30;;;5.70;99.90;;;;;;5023059;28;20038;-65
2024/02/25 14:04:05;;;;;;;1.45;0.30;;;5.70;99.90;;;;;;5021925;28;20033;-66
2024/02/25 14:06:51;;;;;;;2.58;0.30;;;5.80;99.90;;;;;;5022006;28;20041;-66
2024/02/25 14:09:37;;;;;;;2.23;0.40;;;5.90;99.90;;;;;;5022429;28;20033;-66
2024/02/25 14:12:23;;;;;;;1.25;0.32;;;6.00;99.90;;;;;;5021177;28;20033;-66
2024/02/25 14:15:09;;;;;;;1.10;0.60;;;6.00;99.90;;;;;;5021681;28;20039;-66
2024/02/25 14:17:55;;;;;;;4.43;0.63;;;5.80;99.90;;;;;;5018595;28;20446;-67
2024/02/25 14:20:41;;;;;;;0.60;0.40;;;5.90;99.90;;;;;;5026985;23;20049;-66
2024/02/25 14:23:27;;;;;;;0.63;0.40;;;5.90;99.90;;;;;;5034627;28;20164;-68
2024/02/25 14:26:13;;;;;;;2.83;0.40;;;6.00;99.90;;;;;;5028178;28;20043;-66
2024/02/25 14:28:59;;;;;;;1.00;0.60;;;6.00;99.90;;;;;;5020351;28;20068;-64
2024/02/25 14:31:45;;;;;;;0.50;0.50;;;6.00;99.90;;;;;;5017847;28;20084;-64
2024/02/25 14:34:31;;;;;;;1.20;0.60;;;6.00;99.90;;;;;;5038942;28;20029;-65
2024/02/25 14:37:17;;;;;;;1.52;0.70;;;5.90;99.90;;;;;;5033766;28;20033;-65
2024/02/25 14:40:07;;;;;;;1.23;0.50;;;5.90;99.90;;;;;;5028943;28;20037;-64
2024/02/25 14:42:57;;;;;;;7.65;0.70;;;5.90;99.90;;;;;;5002822;28;20630;-64